Costa Atlantica — IBLQ — position and weather

sailwx.info

Track history (hours):
 
Tides and Currents Weather Stations Pressure Air Temp Water Temp Dewpoint Dewpoint Depression Visibility Wind Speed Wind Dir Waves Ship Positions

Costa Atlantica (Italy)

Last reported at 2020-Jan-28 17:30 UTC. Time now 2020-Jan-28 19:00 UTC.
Position N 32°29' E 128°46'.

Length 292 m; draft 8 m.

Type: Ship. MMSI: 247595017.

Date/timePositionNaut miles runAvg speedWind from/ knotsBaromVisibWave heightAir tempDewpointWater temp
2020-Jan-28 17:30N 32°29' E 128°46'34311.6
2020-Jan-27 11:59N 31°09' E 122°13'612.7
2020-Jan-27 11:30N 31°13' E 122°07'11 1.1
2020-Jan-27 01:31N 31°16' E 121°55'33913.8
2020-Jan-26 01:00N 32°31' E 128°24'77 4.3
2020-Jan-25 07:01N 33°10' E 129°43'0 0.0
2020-Jan-25 03:16N 33°10' E 129°43'0 0.0
2020-Jan-25 00:46N 33°10' E 129°43'0 0.0
2020-Jan-25 00:00N 33°10' E 129°43'1 0.3
2020-Jan-24 22:30N 33°09' E 129°43'18 8.1
2020-Jan-24 20:15N 32°56' E 129°28'810.5
2020-Jan-24 19:30N 32°50' E 129°22'3710.7
2020-Jan-24 16:00N 32°29' E 128°45'2711.0
2020-Jan-24 13:31N 32°27' E 128°12'32212.1
2020-Jan-23 10:56N 31°14' E 122°04'1414.5
2020-Jan-23 10:00N 31°17' E 121°48'36 2.4
2020-Jan-22 19:00N 31°07' E 122°29'38912.9
2020-Jan-21 12:46N 33°49' E 129°28'1812.1
2020-Jan-21 11:16N 33°53' E 129°49'15 0.9
2020-Jan-20 18:30N 33°38' E 129°46'1912.5
2020-Jan-20 17:00N 33°31' E 129°26'4812.9
2020-Jan-20 13:15N 33°09' E 128°34'2313.4
2020-Jan-20 11:31N 33°00' E 128°08'31912.7
2020-Jan-19 10:28N 31°07' E 122°17'511.2
2020-Jan-19 09:59N 31°10' E 122°12'2113.9
2020-Jan-19 08:30N 31°17' E 121°49'2 0.2
2020-Jan-18 21:46N 31°18' E 121°47'5 9.7
2020-Jan-18 21:17N 31°16' E 121°52'8 9.9
2020-Jan-18 20:29N 31°15' E 122°01'1110.9
2020-Jan-18 19:31N 31°10' E 122°12'14 9.0
2020-Jan-18 17:59N 31°07' E 122°28'  
Track history (hours):
 
Tides and Currents Weather Stations Pressure Air Temp Water Temp Dewpoint Dewpoint Depression Visibility Wind Speed Wind Dir Waves Ship Positions

Costa Atlantica (Italy)

Last reported at 2020-Jan-28 17:30 UTC. Time now 2020-Jan-28 19:00 UTC.
Position N 32°29' E 128°46'.

Length 292 m; draft 8 m.

Type: Ship. MMSI: 247595017.

Date/timePositionNaut miles runAvg speedWind from/ knotsBaromVisibWave heightAir tempDewpointWater temp
2020-Jan-28 17:30N 32°29' E 128°46'34311.6
2020-Jan-27 11:59N 31°09' E 122°13'612.7
2020-Jan-27 11:30N 31°13' E 122°07'11 1.1
2020-Jan-27 01:31N 31°16' E 121°55'33913.8
2020-Jan-26 01:00N 32°31' E 128°24'77 4.3
2020-Jan-25 07:01N 33°10' E 129°43'0 0.0
2020-Jan-25 03:16N 33°10' E 129°43'0 0.0
2020-Jan-25 00:46N 33°10' E 129°43'0 0.0
2020-Jan-25 00:00N 33°10' E 129°43'1 0.3
2020-Jan-24 22:30N 33°09' E 129°43'18 8.1
2020-Jan-24 20:15N 32°56' E 129°28'810.5
2020-Jan-24 19:30N 32°50' E 129°22'3710.7
2020-Jan-24 16:00N 32°29' E 128°45'2711.0
2020-Jan-24 13:31N 32°27' E 128°12'32212.1
2020-Jan-23 10:56N 31°14' E 122°04'1414.5
2020-Jan-23 10:00N 31°17' E 121°48'36 2.4
2020-Jan-22 19:00N 31°07' E 122°29'38912.9
2020-Jan-21 12:46N 33°49' E 129°28'1812.1
2020-Jan-21 11:16N 33°53' E 129°49'15 0.9
2020-Jan-20 18:30N 33°38' E 129°46'1912.5
2020-Jan-20 17:00N 33°31' E 129°26'4812.9
2020-Jan-20 13:15N 33°09' E 128°34'2313.4
2020-Jan-20 11:31N 33°00' E 128°08'31912.7
2020-Jan-19 10:28N 31°07' E 122°17'511.2
2020-Jan-19 09:59N 31°10' E 122°12'2113.9
2020-Jan-19 08:30N 31°17' E 121°49'2 0.2
2020-Jan-18 21:46N 31°18' E 121°47'5 9.7
2020-Jan-18 21:17N 31°16' E 121°52'8 9.9
2020-Jan-18 20:29N 31°15' E 122°01'1110.9
2020-Jan-18 19:31N 31°10' E 122°12'14 9.0
2020-Jan-18 17:59N 31°07' E 122°28'  

Dump ship's entire track history